Time;durP1;ratioP1;P1;durP2;ratioP2;P2;SDS_P1;SDS_P2;PMS_P1;PMS_P2;Temp;Humidity;BMP_temperature;BMP_pressure;BME280_temperature;BME280_humidity;BME280_pressure;Samples;Min_cycle;Max_cycle;Signal;HPM_P1;HPM_P2
2022/08/19 00:01:42;;;;;;;19.85;17.75;;;19.70;96.50;;;;;;5032280;28;20092;-81
2022/08/19 00:04:11;;;;;;;20.00;16.95;;;19.70;96.40;;;;;;5029942;28;20022;-80
2022/08/19 00:06:38;;;;;;;20.35;18.13;;;19.70;96.40;;;;;;5023134;28;20405;-81
2022/08/19 00:09:07;;;;;;;21.98;18.83;;;19.70;96.50;;;;;;5025754;28;20429;-81
2022/08/19 00:11:34;;;;;;;23.70;20.83;;;19.60;96.70;;;;;;5033401;28;20394;-81
2022/08/19 00:14:00;;;;;;;24.58;21.35;;;19.50;97.10;;;;;;5041671;28;20067;-81
2022/08/19 00:16:26;;;;;;;23.95;21.40;;;19.60;96.90;;;;;;5040257;28;20463;-80
2022/08/19 00:18:51;;;;;;;32.65;22.50;;;19.60;96.70;;;;;;5034361;28;20091;-81
2022/08/19 00:21:17;;;;;;;25.50;22.77;;;19.50;97.00;;;;;;5032774;28;20027;-81
2022/08/19 00:23:43;;;;;;;24.55;21.70;;;19.60;96.80;;;;;;5032415;28;20022;-81
2022/08/19 00:26:10;;;;;;;23.30;20.70;;;19.50;97.10;;;;;;5044886;28;20022;-80
2022/08/19 00:28:36;;;;;;;22.92;20.35;;;19.50;96.80;;;;;;5028534;28;20060;-81
2022/08/19 00:31:07;;;;;;;23.95;21.45;;;19.40;97.00;;;;;;5029199;28;20410;-81
2022/08/19 00:33:33;;;;;;;27.27;23.13;;;19.40;97.20;;;;;;5029716;28;20025;-81
2022/08/19 00:36:00;;;;;;;26.13;23.00;;;19.30;97.60;;;;;;5028682;28;20033;-81
2022/08/19 00:38:27;;;;;;;31.15;24.70;;;19.10;97.80;;;;;;5033963;28;20033;-80
2022/08/19 00:40:53;;;;;;;23.02;20.63;;;19.20;97.60;;;;;;5030683;28;20501;-81
2022/08/19 00:43:21;;;;;;;26.20;22.88;;;19.20;97.50;;;;;;5031731;28;20037;-81
2022/08/19 00:45:48;;;;;;;24.95;21.88;;;19.20;97.70;;;;;;5033162;28;20429;-81
2022/08/19 00:48:15;;;;;;;26.02;22.60;;;19.20;97.50;;;;;;5033859;28;20116;-81
2022/08/19 00:50:42;;;;;;;27.27;21.77;;;19.10;97.70;;;;;;5038338;28;20029;-81
2022/08/19 00:53:11;;;;;;;24.48;21.83;;;19.30;97.50;;;;;;5032152;28;20120;-81
2022/08/19 00:55:38;;;;;;;28.20;21.75;;;19.30;97.50;;;;;;5029640;28;20022;-81
2022/08/19 00:58:09;;;;;;;26.55;22.27;;;19.30;97.60;;;;;;5019931;28;20021;-80
2022/08/19 01:00:37;;;;;;;29.38;22.92;;;19.10;98.20;;;;;;5028023;28;20104;-80
2022/08/19 01:03:08;;;;;;;26.13;22.50;;;19.10;98.00;;;;;;5025919;28;20026;-81
2022/08/19 01:05:36;;;;;;;25.65;22.95;;;19.20;97.80;;;;;;5036053;28;20059;-81
2022/08/19 01:08:04;;;;;;;25.38;22.52;;;19.30;97.60;;;;;;5033483;28;20026;-82
2022/08/19 01:10:40;;;;;;;26.23;22.73;;;19.30;97.60;;;;;;5033524;28;20021;-81
2022/08/19 01:13:06;;;;;;;26.17;23.55;;;19.30;97.70;;;;;;5029694;28;20034;-81
2022/08/19 01:15:38;;;;;;;26.65;22.80;;;19.10;98.00;;;;;;5032548;28;20029;-81
2022/08/19 01:18:10;;;;;;;27.98;22.55;;;19.10;98.20;;;;;;5026096;28;20030;-81
2022/08/19 01:20:37;;;;;;;25.08;22.42;;;19.00;98.40;;;;;;5029899;28;20029;-81
2022/08/19 01:23:03;;;;;;;25.02;21.17;;;19.10;98.10;;;;;;5043228;28;20038;-81
2022/08/19 01:25:44;;;;;;;24.10;21.15;;;19.10;98.10;;;;;;5023853;28;20502;-81
2022/08/19 01:28:25;;;;;;;26.15;20.70;;;19.00;98.40;;;;;;5021160;28;20071;-81
2022/08/19 01:30:53;;;;;;;23.75;21.20;;;18.90;98.40;;;;;;5025059;28;20036;-81
2022/08/19 01:33:20;;;;;;;24.52;21.92;;;18.70;99.00;;;;;;5028678;28;20032;-81
2022/08/19 01:35:51;;;;;;;25.95;23.15;;;18.70;98.80;;;;;;5037072;28;20025;-80
2022/08/19 01:38:26;;;;;;;26.05;23.20;;;18.90;98.40;;;;;;5031881;28;20154;-81
2022/08/19 01:40:53;;;;;;;26.33;23.63;;;18.90;98.30;;;;;;5028360;28;20539;-81
2022/08/19 01:43:19;;;;;;;25.70;23.02;;;18.80;98.70;;;;;;5038752;28;20118;-81
2022/08/19 01:45:46;;;;;;;25.73;22.98;;;18.90;98.30;;;;;;5044177;28;20549;-81
2022/08/19 01:48:13;;;;;;;24.10;21.58;;;19.00;98.10;;;;;;5031484;28;20371;-81
2022/08/19 01:50:39;;;;;;;24.60;21.85;;;19.00;98.10;;;;;;5034054;28;20020;-81
2022/08/19 01:53:07;;;;;;;26.40;23.08;;;19.10;98.10;;;;;;5030528;28;20025;-81
2022/08/19 01:55:36;;;;;;;26.90;24.08;;;19.10;98.00;;;;;;5032048;28;20033;-81
2022/08/19 01:58:05;;;;;;;26.23;22.67;;;18.90;98.20;;;;;;5029143;28;20080;-79
2022/08/19 02:00:32;;;;;;;26.60;23.63;;;19.00;98.30;;;;;;5044847;28;20116;-81
2022/08/19 02:02:58;;;;;;;26.42;23.45;;;18.90;98.20;;;;;;5034981;28;20056;-81
2022/08/19 02:05:24;;;;;;;26.63;23.90;;;18.80;98.30;;;;;;5038972;28;20030;-81
2022/08/19 02:07:50;;;;;;;26.45;23.25;;;18.70;98.50;;;;;;5027457;28;20117;-81
2022/08/19 02:10:21;;;;;;;24.63;22.13;;;18.70;98.70;;;;;;5031708;28;20056;-81
2022/08/19 02:12:49;;;;;;;25.27;22.55;;;18.70;98.60;;;;;;5028807;28;20017;-81
2022/08/19 02:15:15;;;;;;;27.67;24.17;;;18.80;98.50;;;;;;5022640;28;20091;-81
2022/08/19 02:17:41;;;;;;;27.00;24.23;;;18.80;98.50;;;;;;5035255;28;20071;-81
2022/08/19 02:20:08;;;;;;;25.75;22.10;;;18.80;98.50;;;;;;5027229;28;20037;-81
2022/08/19 02:22:35;;;;;;;29.67;24.63;;;18.80;98.40;;;;;;5037431;28;20025;-81
2022/08/19 02:25:01;;;;;;;28.20;24.58;;;18.90;98.30;;;;;;5031826;28;20022;-81
2022/08/19 02:27:27;;;;;;;28.48;23.77;;;18.90;98.30;;;;;;5032090;28;20033;-81
2022/08/19 02:29:53;;;;;;;28.08;23.90;;;18.90;98.40;;;;;;5041964;28;20431;-81
2022/08/19 02:32:19;;;;;;;25.92;22.85;;;18.90;98.40;;;;;;5035690;28;20060;-80
2022/08/19 02:34:47;;;;;;;27.40;23.48;;;18.80;98.60;;;;;;5043533;28;20462;-80
2022/08/19 02:39:58;;;;;;;27.10;24.27;;;18.90;98.70;;;;;;5036405;28;20111;-80
2022/08/19 02:42:25;;;;;;;27.85;24.23;;;18.50;99.40;;;;;;5036745;28;20029;-81
2022/08/19 02:44:51;;;;;;;25.55;22.45;;;18.60;99.30;;;;;;5033473;28;20111;-80
2022/08/19 02:47:18;;;;;;;26.05;22.40;;;18.60;99.00;;;;;;5045002;28;20037;-80
2022/08/19 02:49:45;;;;;;;25.00;21.77;;;18.70;99.00;;;;;;5039096;28;20039;-80
2022/08/19 02:52:11;;;;;;;27.13;23.45;;;18.70;99.10;;;;;;5043295;28;20025;-81
2022/08/19 02:54:38;;;;;;;28.02;23.60;;;18.40;99.80;;;;;;5050685;28;20036;-81
2022/08/19 02:57:04;;;;;;;26.08;22.65;;;18.30;99.90;;;;;;5033419;28;20022;-80
2022/08/19 02:59:34;;;;;;;27.15;22.52;;;18.40;99.70;;;;;;5038333;28;20033;-81
2022/08/19 03:02:00;;;;;;;26.60;22.25;;;18.40;99.50;;;;;;5039987;28;20027;-81
2022/08/19 03:04:35;;;;;;;25.85;23.05;;;18.50;99.40;;;;;;5038675;28;20124;-81
2022/08/19 03:07:01;;;;;;;25.05;21.77;;;18.60;99.30;;;;;;5035067;28;20449;-80
2022/08/19 03:09:26;;;;;;;22.90;20.50;;;18.60;99.20;;;;;;5041580;28;20026;-81
2022/08/19 03:11:52;;;;;;;22.45;19.40;;;18.60;99.00;;;;;;5046247;28;20032;-80
2022/08/19 03:14:18;;;;;;;27.98;21.50;;;18.60;99.30;;;;;;5042727;28;20029;-81
2022/08/19 03:16:51;;;;;;;22.95;20.38;;;18.60;99.00;;;;;;5038283;28;20375;-81
2022/08/19 03:19:20;;;;;;;22.40;20.05;;;18.60;99.10;;;;;;5037246;28;20057;-81
2022/08/19 03:21:47;;;;;;;23.30;19.80;;;18.60;99.10;;;;;;5045193;28;20065;-81
2022/08/19 03:24:14;;;;;;;23.15;20.67;;;18.60;99.10;;;;;;5056847;28;20163;-80
2022/08/19 03:26:45;;;;;;;24.48;20.42;;;18.60;99.30;;;;;;5039159;28;20040;-81
2022/08/19 03:29:11;;;;;;;24.42;20.42;;;18.50;99.20;;;;;;5043600;28;20116;-81
2022/08/19 03:31:39;;;;;;;25.83;20.00;;;18.30;99.80;;;;;;5050530;28;20017;-80
2022/08/19 03:34:05;;;;;;;23.27;20.88;;;18.30;99.90;;;;;;5044561;28;20139;-80
2022/08/19 03:36:31;;;;;;;24.40;20.75;;;18.30;99.90;;;;;;5034373;28;20054;-80
2022/08/19 03:39:00;;;;;;;22.20;19.88;;;18.40;99.70;;;;;;5030849;28;20479;-81
2022/08/19 03:41:30;;;;;;;23.08;20.67;;;18.50;99.40;;;;;;5038193;28;20029;-80
2022/08/19 03:43:57;;;;;;;23.52;20.98;;;18.40;99.70;;;;;;5039336;28;20122;-80
2022/08/19 03:46:27;;;;;;;24.15;21.10;;;18.30;99.80;;;;;;5034859;28;20052;-80
2022/08/19 03:48:56;;;;;;;28.98;21.90;;;18.40;99.70;;;;;;5050679;28;20028;-81
2022/08/19 03:51:25;;;;;;;26.95;22.10;;;18.40;99.50;;;;;;5048237;28;20036;-80
2022/08/19 03:53:53;;;;;;;26.80;23.88;;;18.40;99.50;;;;;;5044598;28;20034;-81
2022/08/19 03:56:19;;;;;;;28.25;24.50;;;18.30;99.50;;;;;;5040747;28;20040;-83
2022/08/19 03:58:46;;;;;;;29.67;25.75;;;18.30;99.60;;;;;;5048831;28;20448;-82
2022/08/19 04:01:15;;;;;;;31.63;24.98;;;18.30;99.80;;;;;;5040104;28;20052;-84
2022/08/19 04:03:41;;;;;;;34.92;26.90;;;18.30;99.60;;;;;;5028030;28;20025;-81
2022/08/19 04:06:22;;;;;;;30.83;25.58;;;18.30;99.60;;;;;;5032220;28;20093;-82
2022/08/19 04:08:50;;;;;;;35.53;29.50;;;18.40;99.60;;;;;;5051961;28;20021;-82
2022/08/19 04:11:21;;;;;;;31.67;27.33;;;18.40;99.50;;;;;;5034210;28;20029;-81
2022/08/19 04:13:47;;;;;;;32.88;27.45;;;18.40;99.60;;;;;;5039244;28;20389;-82
2022/08/19 04:16:13;;;;;;;29.33;25.23;;;18.40;99.80;;;;;;5033616;28;20406;-81
2022/08/19 04:18:40;;;;;;;29.35;25.33;;;18.40;99.80;;;;;;5034179;28;20533;-83
2022/08/19 04:21:07;;;;;;;27.65;24.13;;;18.40;99.80;;;;;;5035283;28;20040;-82
2022/08/19 04:23:35;;;;;;;29.02;24.98;;;18.40;99.70;;;;;;5042446;28;20588;-81
2022/08/19 04:26:02;;;;;;;26.55;23.67;;;18.20;99.90;;;;;;5047829;28;20060;-84
2022/08/19 04:28:28;;;;;;;26.65;23.55;;;18.10;99.90;;;;;;5035147;28;20033;-82
2022/08/19 04:30:55;;;;;;;28.88;22.45;;;18.10;99.90;;;;;;5048457;28;20021;-81
2022/08/19 04:33:24;;;;;;;26.33;22.27;;;18.10;99.90;;;;;;5045702;28;20030;-83
2022/08/19 04:35:52;;;;;;;25.80;21.20;;;18.10;99.90;;;;;;5030577;28;20071;-83
2022/08/19 04:38:22;;;;;;;28.55;23.02;;;18.00;99.90;;;;;;5035532;28;20125;-82
2022/08/19 04:43:37;;;;;;;24.55;21.75;;;18.00;99.90;;;;;;5047661;28;20059;-82
2022/08/19 04:46:11;;;;;;;26.00;22.10;;;18.10;99.90;;;;;;5041767;28;20029;-82
2022/08/19 04:48:38;;;;;;;25.30;21.83;;;18.10;99.90;;;;;;5040256;28;20424;-83
2022/08/19 04:51:08;;;;;;;25.88;23.10;;;18.10;99.90;;;;;;5048443;28;20024;-82
2022/08/19 04:53:36;;;;;;;29.40;24.63;;;18.20;99.90;;;;;;5047591;28;20496;-81
2022/08/19 04:56:16;;;;;;;28.88;22.90;;;18.20;99.90;;;;;;5045955;28;20029;-83
2022/08/19 04:58:44;;;;;;;25.52;22.67;;;18.20;99.90;;;;;;5048092;28;20028;-82
2022/08/19 05:01:26;;;;;;;28.10;24.15;;;18.10;99.90;;;;;;5038693;28;20049;-81
2022/08/19 05:03:52;;;;;;;27.38;24.08;;;18.00;99.90;;;;;;5032491;28;20025;-83
2022/08/19 05:06:20;;;;;;;34.97;26.50;;;17.70;99.90;;;;;;5035393;28;20088;-82
2022/08/19 05:08:47;;;;;;;32.58;25.45;;;17.50;99.90;;;;;;5030701;28;20038;-82
2022/08/19 05:11:25;;;;;;;34.90;27.13;;;17.40;99.90;;;;;;5029608;28;20511;-81
2022/08/19 05:13:51;;;;;;;33.15;25.05;;;17.50;99.90;;;;;;5049642;28;20438;-81
2022/08/19 05:16:20;;;;;;;27.20;23.75;;;17.60;99.90;;;;;;5042007;28;20030;-82
2022/08/19 05:24:16;;;;;;;27.50;24.13;;;18.10;99.90;;;;;;5030723;28;20699;-84
2022/08/19 05:26:46;;;;;;;25.83;23.02;;;18.20;99.90;;;;;;5045594;28;20461;-82
2022/08/19 05:29:16;;;;;;;27.70;22.83;;;18.30;99.90;;;;;;5040327;28;20028;-83
2022/08/19 05:31:43;;;;;;;29.27;24.35;;;18.30;99.90;;;;;;5036397;28;20047;-82
2022/08/19 05:34:09;;;;;;;27.50;24.50;;;18.20;99.90;;;;;;5031244;28;20049;-81
2022/08/19 05:36:43;;;;;;;27.90;23.83;;;18.20;99.90;;;;;;5044921;28;20068;-83
2022/08/19 05:39:13;;;;;;;26.70;23.67;;;18.00;99.90;;;;;;5033136;28;20025;-81
2022/08/19 05:41:44;;;;;;;29.02;24.50;;;17.80;99.90;;;;;;5027507;28;20029;-81
2022/08/19 05:44:09;;;;;;;33.03;26.85;;;17.70;99.90;;;;;;5028279;28;20033;-80
2022/08/19 05:46:37;;;;;;;36.50;26.67;;;17.60;99.90;;;;;;5037136;28;20119;-81
2022/08/19 05:49:07;;;;;;;44.05;28.40;;;17.60;99.90;;;;;;5041894;28;20373;-81
2022/08/19 05:51:36;;;;;;;33.65;28.77;;;17.50;99.90;;;;;;5042389;28;20057;-81
2022/08/19 05:54:04;;;;;;;29.60;26.50;;;17.40;99.90;;;;;;5032997;28;20047;-83
2022/08/19 05:56:30;;;;;;;29.90;25.05;;;17.40;99.90;;;;;;5034462;28;20392;-81
2022/08/19 05:58:58;;;;;;;28.17;25.15;;;17.70;99.90;;;;;;5042177;28;20413;-82
2022/08/19 06:01:25;;;;;;;30.35;26.30;;;17.80;99.90;;;;;;5032281;28;20025;-81
2022/08/19 06:03:50;;;;;;;29.05;25.92;;;17.90;99.90;;;;;;5026416;28;20033;-83
2022/08/19 06:06:17;;;;;;;28.55;25.38;;;18.00;99.90;;;;;;5026906;28;20022;-81
2022/08/19 06:08:48;;;;;;;28.77;24.52;;;18.00;99.90;;;;;;5030696;28;20028;-82
2022/08/19 06:11:34;;;;;;;30.65;25.00;;;18.10;99.90;;;;;;5029650;28;20029;-83
2022/08/19 06:14:08;;;;;;;31.85;25.73;;;18.00;99.90;;;;;;5031696;28;20030;-80
2022/08/19 06:16:35;;;;;;;27.95;24.33;;;18.00;99.90;;;;;;5044852;28;20389;-81
2022/08/19 06:19:05;;;;;;;26.45;23.60;;;18.00;99.90;;;;;;5014527;28;20514;-81
2022/08/19 06:21:31;;;;;;;30.92;25.88;;;18.00;99.90;;;;;;5032284;28;20036;-81
2022/08/19 06:23:58;;;;;;;34.28;28.80;;;18.20;99.90;;;;;;5045020;28;20032;-80
2022/08/19 06:26:24;;;;;;;35.25;29.23;;;18.10;99.90;;;;;;5035555;28;20076;-80
2022/08/19 06:28:50;;;;;;;34.78;29.48;;;18.20;99.90;;;;;;5040410;28;20503;-80
2022/08/19 06:31:24;;;;;;;35.38;28.80;;;18.40;99.90;;;;;;5030092;28;20652;-80
2022/08/19 06:33:50;;;;;;;36.55;29.98;;;18.40;99.90;;;;;;5042430;28;20033;-81
2022/08/19 06:36:29;;;;;;;33.78;29.70;;;18.60;99.90;;;;;;5041104;28;20124;-80
2022/08/19 06:38:57;;;;;;;38.60;29.60;;;18.80;99.90;;;;;;5050786;28;20076;-80
2022/08/19 06:41:23;;;;;;;33.75;28.90;;;19.00;99.90;;;;;;5036330;28;20112;-80
2022/08/19 06:43:49;;;;;;;36.25;31.08;;;19.00;99.90;;;;;;5043415;28;20029;-80
2022/08/19 06:46:17;;;;;;;35.40;27.52;;;19.20;99.90;;;;;;5039699;28;20028;-80
2022/08/19 06:48:43;;;;;;;33.50;27.42;;;19.20;99.90;;;;;;5040798;28;20029;-80
2022/08/19 06:51:09;;;;;;;32.00;26.35;;;19.40;99.90;;;;;;5038157;28;20018;-81
2022/08/19 06:53:35;;;;;;;34.50;28.00;;;19.50;99.90;;;;;;5042265;28;20022;-80
2022/08/19 06:56:01;;;;;;;36.22;28.08;;;19.80;99.80;;;;;;5031623;28;20457;-81
2022/08/19 06:58:34;;;;;;;36.85;28.52;;;20.10;99.10;;;;;;5030294;28;20026;-81
2022/08/19 07:01:02;;;;;;;33.50;28.98;;;20.40;98.50;;;;;;5050195;28;20030;-81
2022/08/19 07:03:34;;;;;;;31.67;28.00;;;20.30;99.50;;;;;;5042337;28;20040;-81
2022/08/19 07:06:20;;;;;;;29.80;26.60;;;20.40;99.20;;;;;;5042416;28;20551;-81
2022/08/19 07:08:47;;;;;;;36.60;28.52;;;20.40;99.60;;;;;;5042787;28;20033;-80
2022/08/19 07:11:17;;;;;;;41.45;33.78;;;20.40;99.60;;;;;;5043833;28;20047;-79
2022/08/19 07:13:45;;;;;;;41.90;29.33;;;20.40;99.90;;;;;;5037640;28;20037;-80
2022/08/19 07:16:15;;;;;;;48.95;34.58;;;20.30;99.90;;;;;;5041904;28;20811;-80
2022/08/19 07:18:41;;;;;;;49.88;37.47;;;20.40;99.90;;;;;;5022127;28;20152;-80
2022/08/19 07:21:13;;;;;;;42.33;34.72;;;20.50;99.90;;;;;;5036274;28;20091;-80
2022/08/19 07:23:39;;;;;;;51.28;38.17;;;20.60;99.90;;;;;;5048530;28;20041;-79
2022/08/19 07:26:17;;;;;;;45.28;35.80;;;20.70;99.90;;;;;;5048369;28;20033;-79
2022/08/19 07:28:44;;;;;;;44.45;36.17;;;20.70;99.90;;;;;;5044206;28;20790;-81
2022/08/19 07:31:17;;;;;;;44.08;36.08;;;20.60;99.90;;;;;;5039998;28;20055;-80
2022/08/19 07:33:43;;;;;;;;;;;20.50;99.90;;;;;;5043926;28;20036;-80
2022/08/19 07:36:12;;;;;;;43.75;33.45;;;20.60;99.90;;;;;;5039636;28;19984;-80
2022/08/19 07:38:40;;;;;;;40.65;33.00;;;20.60;99.90;;;;;;5034117;28;20029;-80
2022/08/19 07:41:07;;;;;;;42.47;32.95;;;20.80;99.90;;;;;;5032936;28;20025;-81
2022/08/19 07:43:33;;;;;;;38.97;33.00;;;20.90;99.90;;;;;;5041147;28;20551;-80
2022/08/19 07:45:59;;;;;;;40.58;31.80;;;20.80;99.90;;;;;;5039392;28;20036;-81
2022/08/19 07:48:26;;;;;;;48.13;33.88;;;20.90;99.90;;;;;;5040844;28;20112;-80
2022/08/19 07:50:54;;;;;;;41.58;33.10;;;20.90;99.90;;;;;;5035011;28;20427;-80
2022/08/19 07:53:22;;;;;;;40.92;31.48;;;20.90;99.90;;;;;;5038456;28;20136;-80
2022/08/19 07:55:48;;;;;;;39.53;31.63;;;21.00;99.90;;;;;;5038551;28;20026;-80
2022/08/19 07:58:18;;;;;;;40.90;30.33;;;21.10;99.90;;;;;;5043538;28;20040;-80
2022/08/19 08:00:45;;;;;;;42.03;30.73;;;20.90;99.90;;;;;;5039705;28;20025;-82
2022/08/19 08:03:13;;;;;;;39.85;30.67;;;21.00;99.90;;;;;;5030294;28;20060;-81
2022/08/19 08:11:10;;;;;;;40.08;32.00;;;21.20;99.90;;;;;;5036058;28;20502;-80
2022/08/19 08:13:36;;;;;;;37.75;31.17;;;21.20;99.90;;;;;;5025980;28;20091;-80
2022/08/19 08:16:03;;;;;;;39.85;30.95;;;21.30;99.90;;;;;;5041916;28;20482;-80
2022/08/19 08:18:29;;;;;;;37.20;30.98;;;21.40;99.90;;;;;;5058703;28;20033;-80
2022/08/19 08:20:55;;;;;;;41.83;33.17;;;21.40;99.90;;;;;;5047840;28;20047;-80
2022/08/19 08:23:22;;;;;;;42.03;32.70;;;21.40;99.90;;;;;;5045733;28;20028;-80
2022/08/19 08:25:48;;;;;;;37.72;30.80;;;21.40;99.90;;;;;;5030284;28;20100;-81
2022/08/19 08:28:16;;;;;;;38.08;29.58;;;21.60;99.90;;;;;;5040091;28;20520;-79
2022/08/19 08:30:43;;;;;;;38.95;32.03;;;21.60;99.90;;;;;;5035107;28;20036;-80
2022/08/19 08:33:09;;;;;;;40.55;31.58;;;21.70;99.80;;;;;;5047360;28;20772;-79
2022/08/19 08:35:36;;;;;;;33.60;27.88;;;21.80;99.60;;;;;;5041298;28;20477;-79
2022/08/19 08:38:04;;;;;;;42.08;30.67;;;21.80;99.70;;;;;;5026298;28;20033;-79
2022/08/19 08:40:32;;;;;;;39.33;30.45;;;21.90;99.40;;;;;;5033522;28;20608;-79
2022/08/19 08:43:22;;;;;;;39.78;31.02;;;22.00;99.10;;;;;;5029018;28;20049;-80
2022/08/19 08:46:00;;;;;;;40.20;29.08;;;21.90;98.80;;;;;;5046416;28;20438;-79
2022/08/19 08:48:50;;;;;;;31.35;26.38;;;22.00;99.10;;;;;;5027114;28;20113;-80
2022/08/19 08:51:28;;;;;;;33.53;26.55;;;22.10;98.80;;;;;;5021581;28;20649;-79
2022/08/19 08:53:55;;;;;;;32.72;26.52;;;22.20;98.30;;;;;;5027503;28;20416;-78
2022/08/19 08:56:22;;;;;;;32.17;24.98;;;22.30;98.20;;;;;;5026001;28;20026;-80
2022/08/19 08:59:30;;;;;;;29.65;23.85;;;22.30;97.90;;;;;;5026938;28;20112;-80
2022/08/19 09:01:56;;;;;;;29.00;21.75;;;22.40;97.90;;;;;;5023166;28;20165;-80
2022/08/19 09:04:22;;;;;;;33.75;21.02;;;22.50;97.90;;;;;;5014831;28;20120;-80
2022/08/19 09:06:54;;;;;;;25.45;18.45;;;22.50;97.00;;;;;;5020987;28;20439;-80
2022/08/19 09:09:43;;;;;;;35.53;19.98;;;22.40;96.80;;;;;;5035760;28;20025;-81
2022/08/19 09:12:12;;;;;;;36.38;20.50;;;22.40;96.60;;;;;;5039779;28;20017;-80
2022/08/19 09:14:47;;;;;;;25.67;19.15;;;22.20;96.90;;;;;;5045169;28;20025;-78
2022/08/19 09:17:14;;;;;;;24.35;18.80;;;22.30;97.30;;;;;;5044696;28;20048;-80
2022/08/19 09:19:53;;;;;;;23.25;15.07;;;22.30;97.40;;;;;;5051005;28;20419;-79
2022/08/19 09:22:22;;;;;;;21.20;16.02;;;22.40;97.30;;;;;;5018649;28;20028;-79
2022/08/19 09:24:54;;;;;;;23.33;14.85;;;22.30;96.70;;;;;;5032101;28;20025;-79
2022/08/19 09:27:23;;;;;;;19.80;14.18;;;22.30;96.50;;;;;;5040387;28;20034;-80
2022/08/19 09:29:50;;;;;;;16.50;13.65;;;22.30;96.50;;;;;;5038907;28;20035;-80
2022/08/19 09:32:17;;;;;;;17.80;13.70;;;22.40;96.30;;;;;;5026565;28;20025;-80
2022/08/19 09:34:43;;;;;;;11.93;10.27;;;22.40;95.90;;;;;;5041290;28;20055;-80
2022/08/19 09:37:10;;;;;;;12.45;9.30;;;22.40;95.00;;;;;;5031632;28;20036;-80
2022/08/19 09:39:35;;;;;;;17.15;11.38;;;22.40;94.20;;;;;;5037071;28;20036;-80
2022/08/19 09:42:03;;;;;;;19.10;12.65;;;22.50;94.50;;;;;;5026864;28;20116;-79
2022/08/19 09:44:29;;;;;;;17.77;11.32;;;22.50;94.50;;;;;;5051809;28;20037;-79
2022/08/19 09:46:56;;;;;;;19.20;13.32;;;22.50;94.40;;;;;;5041334;28;20040;-79
2022/08/19 09:49:21;;;;;;;15.98;13.75;;;22.50;94.30;;;;;;5025543;28;20474;-78
2022/08/19 09:51:51;;;;;;;20.23;14.50;;;22.60;94.20;;;;;;5026580;28;20075;-77
2022/08/19 09:54:18;;;;;;;21.08;13.40;;;22.50;94.20;;;;;;5035299;28;20032;-81
2022/08/19 09:56:44;;;;;;;22.42;17.23;;;22.60;94.30;;;;;;5033461;28;20040;-79
2022/08/19 09:59:11;;;;;;;24.23;14.68;;;22.50;94.70;;;;;;5031524;28;20030;-78
2022/08/19 10:01:38;;;;;;;22.52;17.30;;;22.60;95.00;;;;;;5035972;28;20028;-80
2022/08/19 10:04:09;;;;;;;23.77;15.70;;;22.70;94.60;;;;;;5030936;28;20037;-79
2022/08/19 10:06:39;;;;;;;21.38;16.38;;;22.70;94.80;;;;;;5045558;28;20101;-79
2022/08/19 10:09:07;;;;;;;24.15;17.77;;;22.70;95.20;;;;;;5021650;28;20029;-79
2022/08/19 10:11:39;;;;;;;23.48;17.58;;;22.80;95.40;;;;;;5046091;28;20029;-80
2022/08/19 10:14:05;;;;;;;24.40;17.92;;;22.90;94.80;;;;;;5029729;28;20417;-79
2022/08/19 10:16:31;;;;;;;23.38;18.25;;;22.90;94.70;;;;;;5037285;28;20037;-81
2022/08/19 10:18:59;;;;;;;29.58;20.75;;;22.90;94.80;;;;;;5030609;28;20122;-79
2022/08/19 10:21:32;;;;;;;27.95;20.55;;;22.90;94.20;;;;;;5044016;28;20168;-79
2022/08/19 10:24:03;;;;;;;31.25;19.17;;;22.90;94.50;;;;;;5026398;28;20033;-79
2022/08/19 10:26:36;;;;;;;29.35;22.40;;;23.10;94.40;;;;;;5013246;28;20046;-80
2022/08/19 10:29:04;;;;;;;35.40;26.13;;;23.10;94.00;;;;;;5035591;28;20025;-81
2022/08/19 10:31:32;;;;;;;27.48;22.20;;;23.10;93.70;;;;;;5044699;28;20025;-80
2022/08/19 10:33:58;;;;;;;26.50;20.80;;;23.10;94.00;;;;;;5040547;28;20489;-79
2022/08/19 10:36:34;;;;;;;28.98;22.38;;;23.10;94.10;;;;;;5035636;28;20044;-80
2022/08/19 10:39:04;;;;;;;29.25;22.75;;;23.10;94.10;;;;;;5025648;28;20085;-80
2022/08/19 10:41:33;;;;;;;31.10;22.63;;;23.20;94.10;;;;;;5026766;28;20033;-80
2022/08/19 10:44:02;;;;;;;30.80;23.58;;;23.30;93.80;;;;;;5029121;28;20338;-79
2022/08/19 10:46:32;;;;;;;33.08;23.63;;;23.40;93.70;;;;;;5041038;28;20494;-80
2022/08/19 10:48:58;;;;;;;31.92;23.33;;;23.50;93.90;;;;;;5035317;28;20420;-80
2022/08/19 10:54:09;;;;;;;31.75;21.45;;;23.70;93.30;;;;;;5032336;28;20269;-81
2022/08/19 10:56:54;;;;;;;32.55;25.90;;;23.60;93.20;;;;;;5067196;28;20029;-83
2022/08/19 10:59:29;;;;;;;31.25;22.90;;;23.50;93.00;;;;;;5036516;28;20402;-80
2022/08/19 11:02:00;;;;;;;34.05;24.02;;;23.50;93.20;;;;;;5027814;28;20504;-80
2022/08/19 11:04:26;;;;;;;25.27;19.40;;;23.50;93.10;;;;;;5055166;28;20022;-80
2022/08/19 11:06:52;;;;;;;29.60;19.98;;;23.70;93.60;;;;;;5041117;28;20231;-79
2022/08/19 11:09:24;;;;;;;26.23;21.35;;;23.80;92.90;;;;;;5039538;28;20478;-80
2022/08/19 11:11:50;;;;;;;24.05;19.15;;;23.80;92.00;;;;;;5053552;28;20033;-78
2022/08/19 11:14:20;;;;;;;22.75;17.73;;;23.80;92.10;;;;;;5040038;28;20026;-79
2022/08/19 11:16:48;;;;;;;22.65;16.40;;;23.90;92.10;;;;;;5031077;28;20053;-80
2022/08/19 11:19:18;;;;;;;20.17;15.70;;;24.00;91.80;;;;;;5043734;28;20034;-81
2022/08/19 11:21:48;;;;;;;29.45;18.25;;;24.00;91.90;;;;;;5057533;28;20505;-82
2022/08/19 11:24:20;;;;;;;22.33;15.75;;;24.00;91.40;;;;;;5046677;28;20038;-80
2022/08/19 11:26:49;;;;;;;21.67;14.63;;;24.00;91.00;;;;;;5056023;28;20295;-79
2022/08/19 11:29:17;;;;;;;22.35;14.52;;;24.10;91.10;;;;;;5042245;28;20018;-81
2022/08/19 11:31:46;;;;;;;17.23;13.98;;;24.10;90.90;;;;;;5039990;28;20032;-79
2022/08/19 11:34:16;;;;;;;18.27;14.60;;;24.10;91.00;;;;;;5038940;28;20040;-80
2022/08/19 11:36:44;;;;;;;19.45;12.68;;;24.10;90.50;;;;;;5040553;28;20033;-81
2022/08/19 11:39:12;;;;;;;15.02;12.15;;;24.20;90.40;;;;;;5044504;28;20057;-82
2022/08/19 11:41:39;;;;;;;16.80;13.55;;;24.40;90.50;;;;;;5046855;28;20486;-79
2022/08/19 11:44:07;;;;;;;15.98;12.75;;;24.40;89.90;;;;;;5033552;28;20037;-80
2022/08/19 11:46:35;;;;;;;19.90;15.38;;;24.40;90.10;;;;;;5036289;28;20072;-78
2022/08/19 11:49:03;;;;;;;17.60;13.95;;;24.20;89.20;;;;;;5051744;28;20017;-79
2022/08/19 11:51:29;;;;;;;21.23;13.43;;;24.20;89.50;;;;;;5037972;28;20029;-80
2022/08/19 11:53:57;;;;;;;19.88;13.45;;;24.20;89.40;;;;;;5051658;28;20041;-79
2022/08/19 11:56:24;;;;;;;16.95;12.40;;;24.20;89.90;;;;;;5037439;28;20071;-80
2022/08/19 11:58:52;;;;;;;20.20;13.00;;;24.30;89.90;;;;;;5049408;28;20057;-79
2022/08/19 12:01:20;;;;;;;22.00;13.55;;;24.40;88.50;;;;;;5035697;28;20021;-78
2022/08/19 12:03:48;;;;;;;16.80;14.55;;;24.50;89.80;;;;;;5037412;28;20045;-80
2022/08/19 12:06:23;;;;;;;18.95;15.05;;;24.30;89.50;;;;;;5033114;28;20030;-79
2022/08/19 12:08:48;;;;;;;22.65;13.50;;;24.20;89.40;;;;;;5037288;28;20398;-80
2022/08/19 12:11:15;;;;;;;16.58;11.35;;;24.20;90.00;;;;;;5033062;28;20040;-81
2022/08/19 12:13:44;;;;;;;20.85;13.25;;;24.40;90.20;;;;;;5039273;28;20028;-79
2022/08/19 12:16:22;;;;;;;19.63;13.68;;;24.60;89.50;;;;;;5036192;28;20029;-79
2022/08/19 12:18:49;;;;;;;16.50;13.65;;;24.70;89.30;;;;;;5045314;28;20051;-78
2022/08/19 12:21:18;;;;;;;19.52;13.75;;;24.70;89.70;;;;;;5038515;28;20112;-78
2022/08/19 12:23:45;;;;;;;24.50;15.77;;;24.60;89.80;;;;;;5055717;28;20029;-80
2022/08/19 12:26:11;;;;;;;20.20;13.88;;;24.30;89.90;;;;;;5038122;28;20032;-80
2022/08/19 12:28:38;;;;;;;19.38;14.45;;;24.20;90.30;;;;;;5044164;28;20022;-82
2022/08/19 12:31:04;;;;;;;19.50;14.82;;;24.10;90.00;;;;;;5040300;28;20034;-80
2022/08/19 12:33:31;;;;;;;21.58;15.20;;;24.00;90.00;;;;;;5045926;28;20474;-78
2022/08/19 12:36:03;;;;;;;14.98;12.75;;;24.00;89.60;;;;;;5043243;28;20419;-78
2022/08/19 12:38:29;;;;;;;15.60;13.25;;;24.10;89.20;;;;;;5046144;28;20026;-79
2022/08/19 12:40:55;;;;;;;23.27;13.05;;;24.10;88.30;;;;;;5047628;28;20033;-78
2022/08/19 12:43:21;;;;;;;14.43;11.90;;;24.20;87.60;;;;;;5042174;28;20055;-79
2022/08/19 12:45:47;;;;;;;15.65;11.60;;;24.10;87.70;;;;;;5049213;28;20036;-79
2022/08/19 12:48:14;;;;;;;13.02;10.63;;;24.20;87.00;;;;;;5029138;28;20363;-80
2022/08/19 12:50:41;;;;;;;11.20;9.32;;;24.20;86.50;;;;;;5029324;28;20390;-79
2022/08/19 12:53:06;;;;;;;14.55;10.98;;;24.30;86.00;;;;;;5039198;28;20104;-81
2022/08/19 12:55:32;;;;;;;17.27;9.80;;;24.40;86.30;;;;;;5030613;28;20156;-80